createdAt,value
2023-05-10T00:00:13.319Z,98140.88
2023-05-10T00:02:40.723Z,98141.13
2023-05-10T00:05:07.782Z,98133.28
2023-05-10T00:07:34.219Z,98130.00
2023-05-10T00:10:00.728Z,98128.41
2023-05-10T00:12:27.189Z,98127.88
2023-05-10T00:14:53.649Z,98120.03
2023-05-10T00:17:20.101Z,98119.56
2023-05-10T00:19:46.606Z,98125.22
2023-05-10T00:22:13.050Z,98123.94
2023-05-10T00:24:39.539Z,98126.03
2023-05-10T00:27:06.124Z,98116.06
2023-05-10T00:29:33.036Z,98124.69
2023-05-10T00:31:59.556Z,98114.16
2023-05-10T00:34:26.437Z,98119.84
2023-05-10T00:36:52.871Z,98113.63
2023-05-10T00:39:19.356Z,98116.63
2023-05-10T00:41:46.134Z,98116.63
2023-05-10T00:44:12.687Z,98124.19
2023-05-10T00:46:39.387Z,98124.44
2023-05-10T00:49:06.556Z,98121.75
2023-05-10T00:51:33.834Z,98129.84
2023-05-10T00:54:00.542Z,98126.63
2023-05-10T00:56:27.901Z,98131.78
2023-05-10T00:58:54.426Z,98132.56
2023-05-10T01:01:21.509Z,98137.44
2023-05-10T01:03:48.229Z,98136.09
2023-05-10T01:06:14.761Z,98138.22
2023-05-10T01:08:41.926Z,98135.78
2023-05-10T01:11:08.583Z,98144.44
2023-05-10T01:13:38.907Z,98143.63
2023-05-10T01:16:07.426Z,98147.16
2023-05-10T01:18:37.396Z,98146.34
2023-05-10T01:21:03.798Z,98146.91
2023-05-10T01:23:48.934Z,98150.44
2023-05-10T01:26:37.170Z,98156.09
2023-05-10T01:29:25.346Z,98146.94
2023-05-10T01:32:04.992Z,98149.59
2023-05-10T01:34:53.429Z,98157.97
2023-05-10T01:37:30.686Z,98143.09
2023-05-10T01:40:19.698Z,98149.59
2023-05-10T01:42:52.632Z,98141.50
2023-05-10T01:45:34.965Z,98149.59
2023-05-10T01:48:08.475Z,98152.56
2023-05-10T01:50:37.267Z,98148.78
2023-05-10T01:53:09.210Z,98146.91
2023-05-10T01:55:44.182Z,98152.81
2023-05-10T01:58:14.544Z,98149.63
2023-05-10T02:00:44.186Z,98156.63
2023-05-10T02:03:12.441Z,98170.16
2023-05-10T02:05:40.616Z,98160.66
2023-05-10T02:08:08.843Z,98161.22
2023-05-10T02:10:40.402Z,98169.34
2023-05-10T02:13:09.213Z,98176.06
2023-05-10T02:15:37.967Z,98169.06
2023-05-10T02:18:06.976Z,98168.53
2023-05-10T02:20:35.884Z,98172.28
2023-05-10T02:23:04.185Z,98165.81
2023-05-10T02:25:32.505Z,98176.06
2023-05-10T02:28:02.634Z,98173.38
2023-05-10T02:30:30.218Z,98170.16
2023-05-10T02:32:57.893Z,98159.34
2023-05-10T02:35:26.463Z,98175.81
2023-05-10T02:37:53.745Z,98164.75
2023-05-10T02:40:20.992Z,98170.97
2023-05-10T02:42:49.795Z,98168.50
2023-05-10T02:45:29.113Z,98169.59
2023-05-10T02:47:56.692Z,98171.75
2023-05-10T02:50:25.473Z,98171.25
2023-05-10T02:52:55.147Z,98170.66
2023-05-10T02:55:33.273Z,98177.16
2023-05-10T02:58:02.205Z,98180.13
2023-05-10T03:00:28.984Z,98182.28
2023-05-10T03:02:56.052Z,98181.53
2023-05-10T03:05:22.660Z,98179.88
2023-05-10T03:07:49.340Z,98189.63
2023-05-10T03:10:16.353Z,98182.84
2023-05-10T03:13:05.791Z,98175.56
2023-05-10T03:15:41.675Z,98175.53
2023-05-10T03:18:30.624Z,98183.63
2023-05-10T03:21:06.239Z,98184.22
2023-05-10T03:23:59.537Z,98182.84
2023-05-10T03:26:28.028Z,98180.13
2023-05-10T03:28:56.307Z,98188.53
2023-05-10T03:31:23.066Z,98189.84
2023-05-10T03:33:51.137Z,98193.94
2023-05-10T03:36:18.058Z,98191.50
2023-05-10T03:38:44.852Z,98184.72
2023-05-10T03:41:11.374Z,98186.94
2023-05-10T03:43:38.038Z,98182.06
2023-05-10T03:46:05.597Z,98184.78
2023-05-10T03:48:34.566Z,98185.03
2023-05-10T03:51:01.091Z,98182.06
2023-05-10T03:53:27.975Z,98186.97
2023-05-10T03:55:54.530Z,98178.03
2023-05-10T03:58:21.095Z,98180.19
2023-05-10T04:00:47.662Z,98173.69
2023-05-10T04:03:14.567Z,98176.13
2023-05-10T04:05:41.239Z,98178.84
2023-05-10T04:08:07.803Z,98187.75
2023-05-10T04:10:34.388Z,98185.88
2023-05-10T04:13:01.541Z,98192.63
2023-05-10T04:15:28.055Z,98191.81
2023-05-10T04:17:54.687Z,98201.00
2023-05-10T04:20:21.328Z,98196.69
2023-05-10T04:22:47.849Z,98201.00
2023-05-10T04:25:14.519Z,98210.75
2023-05-10T04:27:41.082Z,98204.50
2023-05-10T04:30:08.272Z,98216.69
2023-05-10T04:32:34.888Z,98219.94
2023-05-10T04:35:03.926Z,98229.09
2023-05-10T04:37:30.518Z,98231.78
2023-05-10T04:39:57.287Z,98222.84
2023-05-10T04:42:23.788Z,98222.00
2023-05-10T04:44:50.278Z,98210.69
2023-05-10T04:47:17.295Z,98223.91
2023-05-10T04:49:43.969Z,98215.56
2023-05-10T04:52:10.550Z,98221.53
2023-05-10T04:54:37.053Z,98219.38
2023-05-10T04:57:03.993Z,98222.59
2023-05-10T04:59:30.485Z,98233.41
2023-05-10T05:01:57.069Z,98234.75
2023-05-10T05:04:25.074Z,98233.66
2023-05-10T05:06:53.756Z,98235.56
2023-05-10T05:09:20.951Z,98242.56
2023-05-10T05:11:47.486Z,98232.84
2023-05-10T05:14:13.925Z,98226.09
2023-05-10T05:16:40.716Z,98239.88
2023-05-10T05:19:07.259Z,98237.19
2023-05-10T05:21:33.925Z,98245.31
2023-05-10T05:24:00.891Z,98239.09
2023-05-10T05:26:27.614Z,98255.56
2023-05-10T05:28:55.611Z,98259.34
2023-05-10T05:31:22.378Z,98255.03
2023-05-10T05:33:48.918Z,98256.66
2023-05-10T05:36:15.600Z,98264.75
2023-05-10T05:38:42.189Z,98266.34
2023-05-10T05:41:08.701Z,98264.72
2023-05-10T05:43:38.004Z,98283.66
2023-05-10T05:46:05.357Z,98280.41
2023-05-10T05:48:32.463Z,98284.19
2023-05-10T05:50:59.169Z,98275.00
2023-05-10T05:53:25.696Z,98282.31
2023-05-10T05:55:56.683Z,98283.63
2023-05-10T05:58:23.784Z,98290.09
2023-05-10T06:00:50.930Z,98286.84
2023-05-10T06:03:17.553Z,98292.25
2023-05-10T06:05:44.383Z,98292.53
2023-05-10T06:08:11.236Z,98297.13
2023-05-10T06:10:38.086Z,98296.59
2023-05-10T06:13:04.733Z,98300.38
2023-05-10T06:15:31.315Z,98309.03
2023-05-10T06:17:57.798Z,98307.41
2023-05-10T06:20:24.419Z,98312.81
2023-05-10T06:22:51.043Z,98315.78
2023-05-10T06:25:19.250Z,98320.13
2023-05-10T06:27:49.759Z,98310.69
2023-05-10T06:30:18.542Z,98318.25
2023-05-10T06:32:46.043Z,98323.03
2023-05-10T06:35:12.601Z,98329.38
2023-05-10T06:37:39.249Z,98335.19
2023-05-10T06:40:07.197Z,98327.84
2023-05-10T06:42:33.722Z,98335.47
2023-05-10T06:45:00.172Z,98328.66
2023-05-10T06:47:26.815Z,98334.75
2023-05-10T06:49:53.447Z,98329.34
2023-05-10T06:52:19.930Z,98321.41
2023-05-10T06:54:46.453Z,98306.59
2023-05-10T06:57:23.271Z,98330.78
2023-05-10T06:59:57.548Z,98333.25
2023-05-10T07:02:24.105Z,98331.09
2023-05-10T07:04:51.101Z,98345.19
2023-05-10T07:07:17.638Z,98343.53
2023-05-10T07:09:44.135Z,98344.38
2023-05-10T07:12:13.437Z,98345.78
2023-05-10T07:14:41.661Z,98344.16
2023-05-10T07:17:08.162Z,98347.47
2023-05-10T07:19:34.860Z,98347.47
2023-05-10T07:22:01.316Z,98353.16
2023-05-10T07:24:27.843Z,98350.72
2023-05-10T07:26:54.354Z,98355.56
2023-05-10T07:29:20.841Z,98346.09
2023-05-10T07:31:47.330Z,98344.50
2023-05-10T07:34:13.833Z,98337.09
2023-05-10T07:36:40.313Z,98343.75
2023-05-10T07:39:06.765Z,98345.56
2023-05-10T07:41:35.058Z,98351.97
2023-05-10T07:44:02.274Z,98355.53
2023-05-10T07:46:29.571Z,98352.31
2023-05-10T07:48:56.448Z,98357.44
2023-05-10T07:51:22.991Z,98357.34
2023-05-10T07:53:49.481Z,98359.59
2023-05-10T07:56:33.305Z,98360.06
2023-05-10T07:59:01.769Z,98368.72
2023-05-10T08:01:33.508Z,98368.88
2023-05-10T08:04:00.930Z,98372.00
2023-05-10T08:06:29.158Z,98368.72
2023-05-10T08:08:55.787Z,98370.28
2023-05-10T08:11:22.382Z,98368.59
2023-05-10T08:13:50.496Z,98377.94
2023-05-10T08:16:17.805Z,98382.97
2023-05-10T08:18:46.085Z,98376.28
2023-05-10T08:21:12.708Z,98374.28
2023-05-10T08:23:39.346Z,98387.28
2023-05-10T08:26:06.082Z,98378.44
2023-05-10T08:28:32.561Z,98380.13
2023-05-10T08:30:59.212Z,98368.50
2023-05-10T08:33:25.952Z,98374.28
2023-05-10T08:35:52.416Z,98367.75
2023-05-10T08:38:19.253Z,98361.22
2023-05-10T08:40:46.621Z,98374.78
2023-05-10T08:43:16.222Z,98370.75
2023-05-10T08:45:46.353Z,98379.72
2023-05-10T08:48:12.874Z,98371.69
2023-05-10T08:50:41.935Z,98378.13
2023-05-10T08:53:14.102Z,98374.19
2023-05-10T08:55:43.083Z,98367.53
2023-05-10T08:58:10.552Z,98373.69
2023-05-10T09:00:38.408Z,98375.31
2023-05-10T09:03:06.413Z,98370.63
2023-05-10T09:05:33.060Z,98369.34
2023-05-10T09:08:01.469Z,98385.03
2023-05-10T09:10:28.955Z,98382.63
2023-05-10T09:12:59.287Z,98384.44
2023-05-10T09:15:26.626Z,98379.63
2023-05-10T09:17:53.363Z,98377.88
2023-05-10T09:20:19.966Z,98381.41
2023-05-10T09:22:46.494Z,98374.47
2023-05-10T09:25:17.545Z,98382.91
2023-05-10T09:27:48.487Z,98376.69
2023-05-10T09:30:26.021Z,98380.41
2023-05-10T09:32:52.965Z,98378.06
2023-05-10T09:35:21.876Z,98374.50
2023-05-10T09:37:51.432Z,98379.50
2023-05-10T09:40:20.023Z,98372.78
2023-05-10T09:43:02.533Z,98363.78
2023-05-10T09:45:31.538Z,98364.28
2023-05-10T09:47:59.601Z,98357.09
2023-05-10T09:50:27.613Z,98350.19
2023-05-10T09:52:55.474Z,98351.88
2023-05-10T09:55:24.068Z,98344.97
2023-05-10T09:58:00.393Z,98345.59
2023-05-10T10:00:27.534Z,98346.88
2023-05-10T10:03:01.197Z,98354.97
2023-05-10T10:05:35.588Z,98358.13
2023-05-10T10:08:04.751Z,98357.66
2023-05-10T10:10:32.898Z,98355.97
2023-05-10T10:12:59.533Z,98347.00
2023-05-10T10:15:26.626Z,98355.19
2023-05-10T10:17:54.365Z,98359.47
2023-05-10T10:20:22.565Z,98362.03
2023-05-10T10:22:49.497Z,98361.34
2023-05-10T10:25:18.238Z,98367.88
2023-05-10T10:27:53.995Z,98366.56
2023-05-10T10:30:32.563Z,98354.78
2023-05-10T10:33:27.284Z,98353.13
2023-05-10T10:35:55.666Z,98352.47
2023-05-10T10:38:22.949Z,98355.56
2023-05-10T10:40:49.796Z,98351.44
2023-05-10T10:43:29.778Z,98352.06
2023-05-10T10:46:18.149Z,98353.94
2023-05-10T10:48:50.821Z,98352.69
2023-05-10T10:51:17.611Z,98353.88
2023-05-10T10:53:44.551Z,98351.91
2023-05-10T10:56:14.552Z,98350.16
2023-05-10T10:58:41.375Z,98351.38
2023-05-10T11:01:19.178Z,98347.00
2023-05-10T11:04:03.801Z,98344.38
2023-05-10T11:06:35.182Z,98335.72
2023-05-10T11:09:12.754Z,98347.00
2023-05-10T11:11:59.387Z,98351.81
2023-05-10T11:14:26.481Z,98346.34
2023-05-10T11:16:53.061Z,98336.34
2023-05-10T11:19:20.437Z,98331.09
2023-05-10T11:21:52.622Z,98327.75
2023-05-10T11:24:27.995Z,98333.47
2023-05-10T11:26:54.885Z,98330.81
2023-05-10T11:29:21.521Z,98326.44
2023-05-10T11:31:49.576Z,98325.03
2023-05-10T11:34:27.057Z,98331.06
2023-05-10T11:36:55.369Z,98330.13
2023-05-10T11:39:22.850Z,98337.44
2023-05-10T11:41:50.515Z,98341.03
2023-05-10T11:44:17.372Z,98338.59
2023-05-10T11:46:44.013Z,98333.00
2023-05-10T11:49:11.203Z,98344.91
2023-05-10T11:51:38.201Z,98337.44
2023-05-10T11:54:10.787Z,98333.78
2023-05-10T11:56:39.090Z,98343.06
2023-05-10T11:59:05.683Z,98332.19
2023-05-10T12:01:32.522Z,98343.72
2023-05-10T12:04:01.267Z,98345.03
2023-05-10T12:06:33.632Z,98332.28
2023-05-10T12:09:00.585Z,98330.16
2023-05-10T12:11:28.935Z,98336.44
2023-05-10T12:13:57.186Z,98337.63
2023-05-10T12:16:25.946Z,98348.34
2023-05-10T12:18:54.238Z,98345.91
2023-05-10T12:21:22.149Z,98346.53
2023-05-10T12:23:51.769Z,98352.47
2023-05-10T12:26:18.368Z,98352.56
2023-05-10T12:28:45.415Z,98354.97
2023-05-10T12:31:11.851Z,98353.94
2023-05-10T12:33:40.545Z,98350.72
2023-05-10T12:36:07.864Z,98350.94
2023-05-10T12:38:39.993Z,98347.41
2023-05-10T12:41:11.498Z,98351.34
2023-05-10T12:43:38.860Z,98349.66
2023-05-10T12:46:14.114Z,98353.97
2023-05-10T12:48:42.122Z,98350.91
2023-05-10T12:51:14.016Z,98354.97
2023-05-10T12:53:42.575Z,98353.56
2023-05-10T12:56:09.973Z,98343.06
2023-05-10T12:58:36.519Z,98342.50
2023-05-10T13:01:03.992Z,98339.22
2023-05-10T13:03:30.636Z,98341.63
2023-05-10T13:05:57.195Z,98347.97
2023-05-10T13:08:23.692Z,98339.84
2023-05-10T13:10:50.271Z,98342.22
2023-05-10T13:13:16.698Z,98339.19
2023-05-10T13:15:43.104Z,98349.44
2023-05-10T13:18:09.589Z,98340.81
2023-05-10T13:20:36.177Z,98339.41
2023-05-10T13:23:03.525Z,98347.78
2023-05-10T13:25:30.079Z,98342.91
2023-05-10T13:27:56.878Z,98344.50
2023-05-10T13:30:24.730Z,98345.78
2023-05-10T13:32:51.222Z,98341.03
2023-05-10T13:35:17.715Z,98338.13
2023-05-10T13:37:44.135Z,98336.22
2023-05-10T13:40:11.204Z,98336.84
2023-05-10T13:42:38.393Z,98327.16
2023-05-10T13:45:05.411Z,98326.84
2023-05-10T13:47:31.916Z,98329.34
2023-05-10T13:49:58.693Z,98319.91
2023-05-10T13:52:25.155Z,98321.06
2023-05-10T13:54:53.220Z,98317.63
2023-05-10T13:57:19.659Z,98320.31
2023-05-10T13:59:46.130Z,98322.66
2023-05-10T14:02:14.121Z,98318.88
2023-05-10T14:04:40.751Z,98325.88
2023-05-10T14:07:07.226Z,98321.69
2023-05-10T14:09:33.657Z,98317.78
2023-05-10T14:12:00.063Z,98320.38
2023-05-10T14:14:26.782Z,98312.84
2023-05-10T14:16:53.164Z,98316.94
2023-05-10T14:19:20.038Z,98314.28
2023-05-10T14:21:46.531Z,98312.44
2023-05-10T14:24:13.000Z,98311.00
2023-05-10T14:26:39.406Z,98312.59
2023-05-10T14:29:05.916Z,98312.19
2023-05-10T14:31:32.746Z,98286.31
2023-05-10T14:34:00.121Z,98288.03
2023-05-10T14:36:26.718Z,98288.97
2023-05-10T14:38:53.216Z,98292.00
2023-05-10T14:41:19.715Z,98294.00
2023-05-10T14:43:46.142Z,98305.06
2023-05-10T14:46:12.604Z,98303.22
2023-05-10T14:48:39.187Z,98304.63
2023-05-10T14:51:05.586Z,98298.44
2023-05-10T14:53:32.093Z,98301.47
2023-05-10T14:55:58.820Z,98295.22
2023-05-10T14:58:25.231Z,98302.97
2023-05-10T15:00:51.969Z,98293.88
2023-05-10T15:03:18.883Z,98291.91
2023-05-10T15:05:46.098Z,98295.28
2023-05-10T15:08:13.492Z,98300.13
2023-05-10T15:10:40.622Z,98295.34
2023-05-10T15:13:07.074Z,98287.28
2023-05-10T15:15:33.590Z,98278.22
2023-05-10T15:18:00.134Z,98295.56
2023-05-10T15:20:26.785Z,98291.78
2023-05-10T15:22:53.202Z,98291.84
2023-05-10T15:25:20.979Z,98303.13
2023-05-10T15:27:47.456Z,98299.03
2023-05-10T15:30:14.169Z,98293.13
2023-05-10T15:32:41.436Z,98297.78
2023-05-10T15:35:10.453Z,98306.09
2023-05-10T15:37:37.510Z,98311.66
2023-05-10T15:40:05.073Z,98325.72
2023-05-10T15:42:32.730Z,98314.44
2023-05-10T15:44:59.443Z,98322.09
2023-05-10T15:47:26.799Z,98323.69
2023-05-10T15:49:53.348Z,98330.78
2023-05-10T15:52:21.061Z,98323.41
2023-05-10T15:54:47.560Z,98334.94
2023-05-10T15:57:14.182Z,98338.13
2023-05-10T15:59:40.909Z,98351.94
2023-05-10T16:02:08.762Z,98343.50
2023-05-10T16:04:35.335Z,98353.03
2023-05-10T16:07:01.886Z,98345.66
2023-05-10T16:09:28.391Z,98351.16
2023-05-10T16:11:54.936Z,98359.97
2023-05-10T16:14:22.970Z,98363.22
2023-05-10T16:16:49.627Z,98354.78
2023-05-10T16:19:16.320Z,98359.19
2023-05-10T16:21:43.016Z,98365.56
2023-05-10T16:24:09.724Z,98367.41
2023-05-10T16:26:40.913Z,98370.22
2023-05-10T16:29:10.696Z,98377.44
2023-05-10T16:31:37.252Z,98381.59
2023-05-10T16:34:03.877Z,98378.75
2023-05-10T16:36:31.345Z,98375.13
2023-05-10T16:38:57.960Z,98377.81
2023-05-10T16:41:24.688Z,98386.66
2023-05-10T16:43:51.316Z,98382.63
2023-05-10T16:46:17.920Z,98385.63
2023-05-10T16:48:44.471Z,98383.47
2023-05-10T16:51:10.986Z,98376.38
2023-05-10T16:53:37.845Z,98370.69
2023-05-10T16:56:04.584Z,98366.56
2023-05-10T16:58:31.269Z,98374.34
2023-05-10T17:00:57.803Z,98373.28
2023-05-10T17:03:24.367Z,98380.72
2023-05-10T17:05:51.060Z,98378.53
2023-05-10T17:08:17.542Z,98379.28
2023-05-10T17:10:44.003Z,98378.91
2023-05-10T17:13:10.935Z,98377.91
2023-05-10T17:15:38.198Z,98377.00
2023-05-10T17:18:05.498Z,98379.16
2023-05-10T17:20:32.297Z,98377.16
2023-05-10T17:22:58.867Z,98379.88
2023-05-10T17:25:25.434Z,98377.72
2023-05-10T17:27:52.004Z,98383.19
2023-05-10T17:30:22.596Z,98382.94
2023-05-10T17:32:49.219Z,98377.25
2023-05-10T17:35:16.149Z,98377.25
2023-05-10T17:37:44.143Z,98373.75
2023-05-10T17:40:11.476Z,98381.72
2023-05-10T17:42:38.039Z,98370.88
2023-05-10T17:45:04.975Z,98371.69
2023-05-10T17:47:31.578Z,98372.25
2023-05-10T17:49:58.152Z,98376.59
2023-05-10T17:52:24.636Z,98373.75
2023-05-10T17:54:51.306Z,98376.16
2023-05-10T17:57:18.456Z,98376.25
2023-05-10T17:59:44.957Z,98370.59
2023-05-10T18:02:11.440Z,98374.16
2023-05-10T18:04:43.106Z,98384.38
2023-05-10T18:07:10.049Z,98380.00
2023-05-10T18:09:36.644Z,98386.88
2023-05-10T18:12:03.436Z,98391.59
2023-05-10T18:14:39.851Z,98389.25
2023-05-10T18:17:07.739Z,98389.00
2023-05-10T18:19:34.510Z,98387.44
2023-05-10T18:22:01.076Z,98394.78
2023-05-10T18:24:38.354Z,98409.41
2023-05-10T18:27:08.708Z,98407.50
2023-05-10T18:29:36.096Z,98411.59
2023-05-10T18:32:02.593Z,98399.19
2023-05-10T18:34:29.083Z,98410.00
2023-05-10T18:36:56.383Z,98414.31
2023-05-10T18:39:23.576Z,98412.47
2023-05-10T18:41:50.180Z,98411.13
2023-05-10T18:44:16.746Z,98419.81
2023-05-10T18:46:43.398Z,98412.19
2023-05-10T18:49:10.084Z,98413.28
2023-05-10T18:51:36.576Z,98420.88
2023-05-10T18:54:03.620Z,98425.78
2023-05-10T18:56:30.118Z,98419.81
2023-05-10T18:58:56.614Z,98429.00
2023-05-10T19:01:23.162Z,98424.69
2023-05-10T19:03:49.781Z,98422.00
2023-05-10T19:06:16.392Z,98426.34
2023-05-10T19:08:43.457Z,98431.75
2023-05-10T19:11:10.055Z,98436.06
2023-05-10T19:13:36.804Z,98442.59
2023-05-10T19:16:06.270Z,98448.50
2023-05-10T19:18:33.270Z,98443.69
2023-05-10T19:21:03.362Z,98449.09
2023-05-10T19:23:33.796Z,98456.41
2023-05-10T19:26:01.272Z,98453.19
2023-05-10T19:28:27.874Z,98462.13
2023-05-10T19:30:54.660Z,98464.81
2023-05-10T19:33:22.184Z,98456.19
2023-05-10T19:35:53.834Z,98469.72
2023-05-10T19:38:24.754Z,98465.91
2023-05-10T19:40:59.409Z,98465.91
2023-05-10T19:43:32.814Z,98467.28
2023-05-10T19:46:02.561Z,98467.81
2023-05-10T19:48:29.666Z,98463.22
2023-05-10T19:51:01.353Z,98460.50
2023-05-10T19:53:28.169Z,98474.06
2023-05-10T19:55:55.612Z,98471.88
2023-05-10T19:58:23.478Z,98473.50
2023-05-10T20:00:50.127Z,98466.16
2023-05-10T20:03:16.809Z,98479.97
2023-05-10T20:05:43.529Z,98481.59
2023-05-10T20:08:10.129Z,98470.50
2023-05-10T20:10:36.637Z,98481.28
2023-05-10T20:13:03.256Z,98486.94
2023-05-10T20:15:29.855Z,98484.00
2023-05-10T20:17:56.449Z,98480.19
2023-05-10T20:20:23.661Z,98485.88
2023-05-10T20:22:50.407Z,98481.84
2023-05-10T20:25:18.159Z,98479.63
2023-05-10T20:27:45.105Z,98483.13
2023-05-10T20:30:12.396Z,98485.88
2023-05-10T20:32:39.439Z,98482.88
2023-05-10T20:35:07.172Z,98479.28
2023-05-10T20:37:34.034Z,98478.22
2023-05-10T20:40:00.554Z,98477.16
2023-05-10T20:42:27.097Z,98473.91
2023-05-10T20:44:53.617Z,98476.84
2023-05-10T20:47:20.329Z,98465.50
2023-05-10T20:49:46.778Z,98469.56
2023-05-10T20:52:13.395Z,98464.44
2023-05-10T20:54:39.950Z,98465.22
2023-05-10T20:57:06.522Z,98456.03
2023-05-10T20:59:34.250Z,98463.34
2023-05-10T21:02:01.220Z,98458.97
2023-05-10T21:04:27.890Z,98458.69
2023-05-10T21:06:55.698Z,98462.47
2023-05-10T21:09:22.393Z,98456.53
2023-05-10T21:11:49.769Z,98458.94
2023-05-10T21:14:16.577Z,98460.31
2023-05-10T21:16:43.247Z,98457.03
2023-05-10T21:19:10.046Z,98453.25
2023-05-10T21:21:36.537Z,98462.94
2023-05-10T21:24:03.212Z,98462.94
2023-05-10T21:26:29.706Z,98450.81
2023-05-10T21:28:56.472Z,98459.97
2023-05-10T21:31:23.059Z,98451.56
2023-05-10T21:33:49.606Z,98460.28
2023-05-10T21:36:16.172Z,98461.34
2023-05-10T21:38:44.522Z,98459.19
2023-05-10T21:41:11.120Z,98461.97
2023-05-10T21:43:37.706Z,98456.53
2023-05-10T21:46:04.715Z,98459.47
2023-05-10T21:48:31.343Z,98458.69
2023-05-10T21:50:57.907Z,98461.16
2023-05-10T21:53:24.516Z,98462.50
2023-05-10T21:55:51.024Z,98461.41
2023-05-10T21:58:17.611Z,98465.75
2023-05-10T22:00:44.295Z,98462.97
2023-05-10T22:03:10.808Z,98465.69
2023-05-10T22:05:37.341Z,98465.44
2023-05-10T22:08:04.050Z,98465.41
2023-05-10T22:10:30.988Z,98474.78
2023-05-10T22:12:58.224Z,98472.59
2023-05-10T22:15:24.719Z,98471.50
2023-05-10T22:17:51.296Z,98463.66
2023-05-10T22:20:18.209Z,98459.63
2023-05-10T22:22:45.276Z,98472.03
2023-05-10T22:25:11.752Z,98464.50
2023-05-10T22:27:38.237Z,98461.25
2023-05-10T22:30:05.330Z,98450.44
2023-05-10T22:32:31.907Z,98466.13
2023-05-10T22:34:58.468Z,98457.47
2023-05-10T22:37:24.957Z,98458.56
2023-05-10T22:39:51.504Z,98460.19
2023-05-10T22:42:18.105Z,98468.03
2023-05-10T22:44:44.625Z,98460.78
2023-05-10T22:47:11.215Z,98460.28
2023-05-10T22:49:40.002Z,98456.53
2023-05-10T22:52:06.453Z,98454.84
2023-05-10T22:54:34.920Z,98455.09
2023-05-10T22:57:02.803Z,98456.47
2023-05-10T22:59:29.339Z,98454.25
2023-05-10T23:01:55.977Z,98450.00
2023-05-10T23:04:22.582Z,98450.56
2023-05-10T23:06:49.118Z,98458.69
2023-05-10T23:09:16.397Z,98454.59
2023-05-10T23:11:42.950Z,98453.25
2023-05-10T23:14:09.511Z,98453.22
2023-05-10T23:16:36.273Z,98459.69
2023-05-10T23:19:02.923Z,98449.69
2023-05-10T23:21:31.903Z,98457.28
2023-05-10T23:23:58.701Z,98452.16
2023-05-10T23:26:25.226Z,98454.78
2023-05-10T23:28:51.806Z,98460.50
2023-05-10T23:31:18.458Z,98451.88
2023-05-10T23:33:44.940Z,98453.72
2023-05-10T23:36:11.423Z,98446.72
2023-05-10T23:38:38.301Z,98445.31
2023-05-10T23:41:04.815Z,98446.19
2023-05-10T23:43:31.665Z,98444.56
2023-05-10T23:45:58.627Z,98446.75
2023-05-10T23:48:25.431Z,98439.22
2023-05-10T23:50:52.034Z,98439.16
2023-05-10T23:53:18.964Z,98444.53
2023-05-10T23:55:45.506Z,98437.59
2023-05-10T23:58:12.580Z,98438.66
